createdAt,value
2016-05-31T00:00:05.203Z,97.52
2016-05-31T00:01:05.174Z,97.52
2016-05-31T00:02:05.161Z,97.52
2016-05-31T00:03:05.148Z,97.52
2016-05-31T00:04:05.119Z,97.61
2016-05-31T00:05:05.107Z,97.52
2016-05-31T00:06:05.094Z,97.42
2016-05-31T00:07:05.065Z,97.33
2016-05-31T00:08:05.052Z,97.33
2016-05-31T00:09:05.039Z,97.24
2016-05-31T00:10:05.011Z,97.24
2016-05-31T00:11:04.998Z,97.52
2016-05-31T00:12:04.985Z,97.61
2016-05-31T00:13:04.956Z,97.61
2016-05-31T00:14:04.943Z,97.61
2016-05-31T00:15:04.930Z,97.42
2016-05-31T00:16:04.902Z,97.52
2016-05-31T00:17:04.889Z,97.42
2016-05-31T00:18:04.875Z,97.61
2016-05-31T00:19:04.848Z,97.61
2016-05-31T00:20:04.835Z,97.61
2016-05-31T00:21:04.806Z,97.61
2016-05-31T00:22:04.792Z,97.61
2016-05-31T00:23:04.780Z,97.61
2016-05-31T00:24:04.766Z,97.61
2016-05-31T00:25:04.739Z,97.42
2016-05-31T00:26:04.725Z,97.09
2016-05-31T00:27:04.712Z,97.28
2016-05-31T00:28:04.683Z,97.42
2016-05-31T00:29:04.672Z,97.71
2016-05-31T00:30:04.658Z,97.19
2016-05-31T00:31:04.630Z,97.24
2016-05-31T00:32:04.616Z,97.86
2016-05-31T00:33:04.603Z,97.91
2016-05-31T00:34:04.575Z,97.24
2016-05-31T00:35:04.563Z,97.24
2016-05-31T00:36:04.549Z,97.91
2016-05-31T00:37:04.521Z,97.56
2016-05-31T00:38:04.945Z,97.66
2016-05-31T00:39:04.495Z,97.76
2016-05-31T00:40:04.466Z,98.05
2016-05-31T00:41:04.453Z,97.66
2016-05-31T00:42:04.440Z,97.56
2016-05-31T00:43:04.412Z,97.66
2016-05-31T00:44:04.399Z,97.52
2016-05-31T00:45:04.370Z,97.33
2016-05-31T00:46:04.357Z,97.33
2016-05-31T00:47:04.345Z,97.42
2016-05-31T00:48:04.332Z,97.33
2016-05-31T00:49:04.304Z,97.52
2016-05-31T00:50:04.290Z,96.94
2016-05-31T00:51:04.276Z,96.94
2016-05-31T00:52:04.249Z,97.19
2016-05-31T00:53:04.626Z,97.47
2016-05-31T00:54:04.223Z,97.42
2016-05-31T00:55:04.194Z,97.42
2016-05-31T00:56:04.181Z,97.42
2016-05-31T00:57:04.168Z,97.42
2016-05-31T00:58:04.139Z,97.52
2016-05-31T00:59:04.127Z,96.7
2016-05-31T01:00:04.098Z,96.8
2016-05-31T01:01:04.085Z,97.09
2016-05-31T01:02:04.072Z,96.89
2016-05-31T01:03:04.059Z,96.99
2016-05-31T01:04:04.031Z,96.89
2016-05-31T01:05:04.018Z,97.19
2016-05-31T01:06:03.989Z,96.99
2016-05-31T01:07:03.977Z,96.8
2016-05-31T01:08:03.963Z,97.19
2016-05-31T01:09:03.935Z,97.19
2016-05-31T01:10:03.922Z,97.19
2016-05-31T01:11:03.909Z,96.99
2016-05-31T01:12:03.880Z,96.8
2016-05-31T01:13:03.868Z,96.42
2016-05-31T01:14:03.854Z,96.42
2016-05-31T01:15:03.826Z,97.19
2016-05-31T01:16:03.813Z,96.94
2016-05-31T01:17:03.784Z,96.85
2016-05-31T01:18:03.771Z,96.94
2016-05-31T01:19:03.759Z,96.94
2016-05-31T01:20:03.729Z,97.04
2016-05-31T01:21:03.717Z,97.04
2016-05-31T01:22:03.704Z,97.14
2016-05-31T01:23:03.831Z,96.94
2016-05-31T01:24:03.663Z,96.94
2016-05-31T01:25:03.665Z,96.94
2016-05-31T01:26:03.621Z,96.75
2016-05-31T01:27:03.608Z,96.85
2016-05-31T01:28:03.580Z,97.61
2016-05-31T01:29:03.567Z,97.52
2016-05-31T01:30:03.554Z,96.89
2016-05-31T01:31:03.525Z,97.09
2016-05-31T01:32:03.512Z,96.99
2016-05-31T01:33:03.483Z,97.18
2016-05-31T01:34:03.472Z,97.18
2016-05-31T01:35:03.442Z,97.28
2016-05-31T01:36:03.429Z,97.18
2016-05-31T01:37:03.417Z,97.47
2016-05-31T01:38:03.685Z,97.56
2016-05-31T01:39:03.375Z,97.56
2016-05-31T01:40:03.346Z,97.09
2016-05-31T01:41:03.333Z,97.66
2016-05-31T01:42:03.304Z,97.76
2016-05-31T01:43:03.291Z,97.66
2016-05-31T01:44:03.279Z,97.38
2016-05-31T01:45:03.251Z,97.56
2016-05-31T01:46:03.237Z,97.66
2016-05-31T01:47:03.224Z,97.76
2016-05-31T01:48:03.196Z,97.76
2016-05-31T01:49:03.183Z,97.38
2016-05-31T01:50:03.154Z,97.76
2016-05-31T01:51:03.142Z,97.95
2016-05-31T01:52:03.113Z,97.85
2016-05-31T01:53:03.162Z,97.85
2016-05-31T01:54:03.087Z,98.24
2016-05-31T01:55:03.059Z,97.85
2016-05-31T01:56:03.046Z,97.66
2016-05-31T01:57:03.017Z,98.24
2016-05-31T01:58:03.004Z,97.85
2016-05-31T01:59:02.991Z,98.43
2016-05-31T02:00:02.978Z,98.24
2016-05-31T02:01:02.950Z,98.14
2016-05-31T02:02:02.922Z,98.43
2016-05-31T02:03:02.908Z,98.33
2016-05-31T02:04:02.895Z,98.05
2016-05-31T02:05:02.866Z,98.14
2016-05-31T02:06:02.854Z,98.52
2016-05-31T02:07:02.825Z,98.43
2016-05-31T02:08:02.812Z,98.33
2016-05-31T02:09:02.783Z,98.33
2016-05-31T02:10:02.771Z,98.62
2016-05-31T02:11:02.758Z,98.24
2016-05-31T02:12:02.730Z,98.52
2016-05-31T02:13:02.716Z,98.52
2016-05-31T02:14:02.750Z,98.43
2016-05-31T02:15:02.675Z,98.33
2016-05-31T02:16:02.662Z,98.14
2016-05-31T02:17:02.649Z,98.33
2016-05-31T02:18:02.621Z,98.33
2016-05-31T02:19:02.593Z,98.14
2016-05-31T02:20:02.579Z,98.52
2016-05-31T02:21:02.566Z,98.43
2016-05-31T02:22:02.537Z,98.48
2016-05-31T02:23:02.524Z,98.28
2016-05-31T02:24:02.496Z,98.24
2016-05-31T02:25:02.484Z,97.81
2016-05-31T02:26:02.471Z,97.9
2016-05-31T02:27:02.442Z,97.66
2016-05-31T02:28:02.429Z,98.1
2016-05-31T02:29:02.416Z,97.38
2016-05-31T02:30:02.387Z,98
2016-05-31T02:31:02.375Z,97.42
2016-05-31T02:32:02.345Z,97.42
2016-05-31T02:33:02.333Z,97.61
2016-05-31T02:34:02.320Z,97.61
2016-05-31T02:35:02.307Z,97.61
2016-05-31T02:36:02.278Z,97.52
2016-05-31T02:37:02.266Z,97.42
2016-05-31T02:38:02.486Z,97.61
2016-05-31T02:39:02.224Z,97.42
2016-05-31T02:40:02.195Z,97.52
2016-05-31T02:41:02.182Z,97.71
2016-05-31T02:42:02.169Z,97.42
2016-05-31T02:43:02.141Z,97.42
2016-05-31T02:44:02.128Z,97.81
2016-05-31T02:45:02.115Z,97.71
2016-05-31T02:46:02.086Z,97.71
2016-05-31T02:47:02.073Z,97.61
2016-05-31T02:48:02.045Z,97.81
2016-05-31T02:49:02.032Z,97.33
2016-05-31T02:50:02.019Z,97.61
2016-05-31T02:51:02.007Z,97.61
2016-05-31T02:52:01.977Z,97.33
2016-05-31T02:53:02.324Z,97.42
2016-05-31T02:54:01.936Z,97.33
2016-05-31T02:55:01.923Z,97.14
2016-05-31T02:56:01.895Z,97.04
2016-05-31T02:57:01.882Z,97.23
2016-05-31T02:58:01.868Z,97.14
2016-05-31T02:59:01.840Z,96.85
2016-05-31T03:00:01.827Z,97.04
2016-05-31T03:01:01.799Z,97.23
2016-05-31T03:02:01.786Z,96.94
2016-05-31T03:03:01.773Z,97.33
2016-05-31T03:04:01.759Z,97.52
2016-05-31T03:05:01.731Z,97.33
2016-05-31T03:06:01.719Z,97.61
2016-05-31T03:07:01.689Z,97.61
2016-05-31T03:08:01.678Z,97.61
2016-05-31T03:09:01.664Z,97.81
2016-05-31T03:10:01.636Z,97.42
2016-05-31T03:11:01.622Z,97.33
2016-05-31T03:12:01.593Z,97.52
2016-05-31T03:13:01.581Z,96.94
2016-05-31T03:14:01.568Z,97.33
2016-05-31T03:15:01.539Z,97.52
2016-05-31T03:16:01.527Z,97.42
2016-05-31T03:17:01.498Z,97.52
2016-05-31T03:18:01.485Z,97.61
2016-05-31T03:19:01.472Z,97.52
2016-05-31T03:20:01.459Z,97.52
2016-05-31T03:21:01.430Z,97.81
2016-05-31T03:22:01.418Z,97.14
2016-05-31T03:23:01.390Z,96.75
2016-05-31T03:24:01.376Z,97.04
2016-05-31T03:25:01.363Z,96.94
2016-05-31T03:26:01.335Z,96.94
2016-05-31T03:27:01.321Z,96.75
2016-05-31T03:28:01.292Z,96.85
2016-05-31T03:29:01.281Z,97.04
2016-05-31T03:30:01.267Z,96.85
2016-05-31T03:31:01.239Z,96.94
2016-05-31T03:32:01.226Z,96.94
2016-05-31T03:33:01.212Z,96.85
2016-05-31T03:34:01.184Z,96.75
2016-05-31T03:35:01.172Z,97.04
2016-05-31T03:36:01.159Z,97.04
2016-05-31T03:37:01.130Z,97.71
2016-05-31T03:38:01.117Z,97.42
2016-05-31T03:39:01.104Z,97.42
2016-05-31T03:40:01.075Z,97.52
2016-05-31T03:41:01.063Z,97.52
2016-05-31T03:42:01.033Z,97.33
2016-05-31T03:43:01.021Z,97.52
2016-05-31T03:44:01.008Z,96.94
2016-05-31T03:45:00.979Z,97.14
2016-05-31T03:46:00.967Z,97.23
2016-05-31T03:47:00.954Z,97.14
2016-05-31T03:48:00.924Z,97.04
2016-05-31T03:49:00.913Z,97.04
2016-05-31T03:50:00.883Z,97.04
2016-05-31T03:51:00.870Z,97.04
2016-05-31T03:52:00.858Z,97.42
2016-05-31T03:53:00.829Z,97.04
2016-05-31T03:54:00.816Z,97.14
2016-05-31T03:55:00.804Z,97.04
2016-05-31T03:56:00.774Z,97.23
2016-05-31T03:57:00.762Z,97.14
2016-05-31T03:58:00.734Z,97.23
2016-05-31T03:59:00.720Z,97.04
2016-05-31T04:00:00.707Z,96.85
2016-05-31T04:01:00.678Z,97.14
2016-05-31T04:02:00.666Z,96.85
2016-05-31T04:03:00.653Z,97.23
2016-05-31T04:04:00.624Z,97.04
2016-05-31T04:05:00.612Z,97.14
2016-05-31T04:06:00.598Z,97.14
2016-05-31T04:07:00.569Z,97.23
2016-05-31T04:08:00.556Z,97.23
2016-05-31T04:09:00.529Z,97.23
2016-05-31T04:10:00.516Z,97.33
2016-05-31T04:11:00.502Z,97.52
2016-05-31T04:12:00.475Z,97.04
2016-05-31T04:13:00.492Z,97.14
2016-05-31T04:14:00.447Z,97.81
2016-05-31T04:15:00.419Z,97.71
2016-05-31T04:16:00.407Z,97.61
2016-05-31T04:17:00.394Z,97.42
2016-05-31T04:18:00.365Z,97.71
2016-05-31T04:19:00.352Z,97.52
2016-05-31T04:20:00.339Z,97.56
2016-05-31T04:21:00.326Z,98.05
2016-05-31T04:22:00.298Z,97.76
2016-05-31T04:23:00.285Z,97.76
2016-05-31T04:24:00.257Z,97.76
2016-05-31T04:25:00.243Z,98.24
2016-05-31T04:26:00.215Z,97.38
2016-05-31T04:27:00.202Z,97.56
2016-05-31T04:28:00.189Z,98.05
2016-05-31T04:29:00.159Z,97.38
2016-05-31T04:30:00.147Z,97.47
2016-05-31T04:31:00.135Z,97.28
2016-05-31T04:32:00.121Z,97.28
2016-05-31T04:33:00.092Z,97.28
2016-05-31T04:34:00.081Z,97.19
2016-05-31T04:35:00.051Z,97.19
2016-05-31T04:36:00.038Z,97.28
2016-05-31T04:37:00.026Z,97.56
2016-05-31T04:37:59.997Z,97.47
2016-05-31T04:38:59.984Z,97.09
2016-05-31T04:39:59.971Z,97.09
2016-05-31T04:40:59.959Z,97.14
2016-05-31T04:41:59.930Z,97.14
2016-05-31T04:42:59.916Z,97.04
2016-05-31T04:43:59.903Z,97.24
2016-05-31T04:44:59.875Z,96.75
2016-05-31T04:45:59.863Z,96.75
2016-05-31T04:46:59.849Z,96.85
2016-05-31T04:47:59.821Z,96.85
2016-05-31T04:48:59.808Z,96.56
2016-05-31T04:49:59.794Z,96.56
2016-05-31T04:50:59.766Z,96.85
2016-05-31T04:51:59.754Z,96.85
2016-05-31T04:52:59.741Z,96.85
2016-05-31T04:53:59.727Z,96.66
2016-05-31T04:54:59.699Z,96.85
2016-05-31T04:55:59.685Z,96.8
2016-05-31T04:56:59.673Z,96.51
2016-05-31T04:57:59.660Z,96.32
2016-05-31T04:58:59.631Z,96.51
2016-05-31T04:59:59.619Z,96.27
2016-05-31T05:00:59.606Z,96.42
2016-05-31T05:01:59.592Z,96.56
2016-05-31T05:02:59.565Z,96.7
2016-05-31T05:03:59.551Z,96.7
2016-05-31T05:04:59.523Z,96.8
2016-05-31T05:05:59.509Z,96.8
2016-05-31T05:06:59.498Z,96.89
2016-05-31T05:07:59.484Z,96.32
2016-05-31T05:08:59.470Z,96.22
2016-05-31T05:09:59.442Z,96.13
2016-05-31T05:10:59.429Z,96.03
2016-05-31T05:11:59.417Z,96.03
2016-05-31T05:12:59.388Z,96.13
2016-05-31T05:13:59.375Z,96.22
2016-05-31T05:14:59.362Z,96.42
2016-05-31T05:15:59.349Z,96.61
2016-05-31T05:16:59.336Z,96.13
2016-05-31T05:17:59.323Z,96.03
2016-05-31T05:18:59.311Z,96.03
2016-05-31T05:19:59.282Z,96.37
2016-05-31T05:20:59.269Z,96.17
2016-05-31T05:21:59.240Z,95.89
2016-05-31T05:22:59.243Z,96.22
2016-05-31T05:23:59.215Z,95.89
2016-05-31T05:24:59.201Z,95.89
2016-05-31T05:25:59.188Z,95.75
2016-05-31T05:26:59.160Z,95.5
2016-05-31T05:27:59.147Z,95.4
2016-05-31T05:28:59.134Z,95.6
2016-05-31T05:29:59.121Z,95.6
2016-05-31T05:30:59.093Z,95.31
2016-05-31T05:31:59.079Z,95.5
2016-05-31T05:32:59.067Z,95.21
2016-05-31T05:33:59.054Z,95.98
2016-05-31T05:34:59.026Z,95.5
2016-05-31T05:35:59.012Z,95.6
2016-05-31T05:36:59.000Z,95.7
2016-05-31T05:37:58.986Z,95.4
2016-05-31T05:38:58.973Z,95.6
2016-05-31T05:39:58.945Z,95.79
2016-05-31T05:40:58.931Z,95.79
2016-05-31T05:41:58.920Z,95.79
2016-05-31T05:42:58.906Z,95.79
2016-05-31T05:43:58.894Z,95.4
2016-05-31T05:44:58.864Z,95.5
2016-05-31T05:45:58.852Z,95.5
2016-05-31T05:46:58.839Z,95.75
2016-05-31T05:47:58.810Z,96.42
2016-05-31T05:48:58.797Z,96.22
2016-05-31T05:49:58.784Z,96.22
2016-05-31T05:50:58.772Z,95.94
2016-05-31T05:51:58.758Z,95.75
2016-05-31T05:52:58.729Z,95.65
2016-05-31T05:53:58.749Z,96.13
2016-05-31T05:54:58.704Z,95.55
2016-05-31T05:55:58.691Z,95.79
2016-05-31T05:56:58.687Z,95.55
2016-05-31T05:57:58.701Z,95.7
2016-05-31T05:58:58.699Z,95.75
2016-05-31T05:59:58.712Z,95.7
2016-05-31T06:00:58.725Z,95.65
2016-05-31T06:01:58.734Z,95.89
2016-05-31T06:02:58.730Z,95.4
2016-05-31T06:03:58.711Z,95.7
2016-05-31T06:04:58.708Z,95.5
2016-05-31T06:05:58.705Z,95.79
2016-05-31T06:06:58.699Z,95.89
2016-05-31T06:07:58.783Z,95.21
2016-05-31T06:08:58.681Z,95.12
2016-05-31T06:09:58.656Z,95.12
2016-05-31T06:10:58.662Z,95.02
2016-05-31T06:11:58.635Z,95.31
2016-05-31T06:12:58.623Z,94.83
2016-05-31T06:13:58.612Z,94.45
2016-05-31T06:14:58.596Z,94.64
2016-05-31T06:15:58.585Z,94.68
2016-05-31T06:16:58.588Z,94.35
2016-05-31T06:17:58.545Z,94.59
2016-05-31T06:18:58.532Z,94.92
2016-05-31T06:19:58.520Z,94.64
2016-05-31T06:20:58.507Z,94.3
2016-05-31T06:21:58.494Z,94.68
2016-05-31T06:22:58.483Z,94.35
2016-05-31T06:23:58.469Z,94.83
2016-05-31T06:24:58.456Z,95.17
2016-05-31T06:25:58.428Z,95.36
2016-05-31T06:26:58.415Z,95.17
2016-05-31T06:27:58.402Z,95.07
2016-05-31T06:28:58.388Z,95.17
2016-05-31T06:29:58.376Z,94.44
2016-05-31T06:30:58.363Z,94.73
2016-05-31T06:31:58.350Z,94.73
2016-05-31T06:32:58.337Z,94.64
2016-05-31T06:33:58.323Z,93.87
2016-05-31T06:34:58.312Z,93.96
2016-05-31T06:35:58.298Z,93.57
2016-05-31T06:36:58.285Z,93.96
2016-05-31T06:37:58.272Z,93.77
2016-05-31T06:38:58.260Z,93.91
2016-05-31T06:39:58.247Z,93.62
2016-05-31T06:40:58.233Z,93.91
2016-05-31T06:41:58.220Z,93.91
2016-05-31T06:42:58.208Z,93.24
2016-05-31T06:43:58.195Z,93.04
2016-05-31T06:44:58.181Z,93.14
2016-05-31T06:45:58.169Z,93.14
2016-05-31T06:46:58.155Z,93.81
2016-05-31T06:47:58.144Z,93.24
2016-05-31T06:48:58.130Z,93.04
2016-05-31T06:49:58.117Z,93.48
2016-05-31T06:50:58.105Z,93.04
2016-05-31T06:51:58.091Z,93.28
2016-05-31T06:52:58.938Z,92.9
2016-05-31T06:53:58.065Z,92.8
2016-05-31T06:54:58.052Z,92.51
2016-05-31T06:55:58.040Z,92.61
2016-05-31T06:56:58.027Z,92.9
2016-05-31T06:57:58.013Z,91.93
2016-05-31T06:58:58.001Z,92.13
2016-05-31T06:59:57.988Z,92.03
2016-05-31T07:00:57.975Z,92.32
2016-05-31T07:01:57.962Z,91.74
2016-05-31T07:02:57.949Z,91.83
2016-05-31T07:03:57.936Z,91.26
2016-05-31T07:04:57.923Z,91.45
2016-05-31T07:05:57.910Z,91.93
2016-05-31T07:06:57.897Z,92.22
2016-05-31T07:07:57.884Z,91.83
2016-05-31T07:08:57.871Z,91.83
2016-05-31T07:09:57.859Z,92.22
2016-05-31T07:10:57.845Z,92.32
2016-05-31T07:11:57.833Z,92.13
2016-05-31T07:12:57.819Z,92.22
2016-05-31T07:13:57.854Z,92.36
2016-05-31T07:14:57.794Z,91.88
2016-05-31T07:15:57.781Z,91.98
2016-05-31T07:16:57.767Z,92.36
2016-05-31T07:17:57.770Z,92.08
2016-05-31T07:18:57.757Z,92.75
2016-05-31T07:19:57.745Z,92.75
2016-05-31T07:20:57.732Z,92.32
2016-05-31T07:21:57.719Z,92.22
2016-05-31T07:22:58.033Z,92.22
2016-05-31T07:23:57.694Z,91.25
2016-05-31T07:24:57.696Z,92.12
2016-05-31T07:25:57.666Z,92.12
2016-05-31T07:26:57.669Z,91.54
2016-05-31T07:27:57.657Z,91.68
2016-05-31T07:28:57.660Z,91.78
2016-05-31T07:29:57.646Z,92.46
2016-05-31T07:30:57.634Z,91.78
2016-05-31T07:31:57.621Z,91.97
2016-05-31T07:32:57.608Z,92.21
2016-05-31T07:33:57.595Z,91.35
2016-05-31T07:34:57.582Z,91.58
2016-05-31T07:35:57.584Z,91.49
2016-05-31T07:36:57.571Z,90.71
2016-05-31T07:37:58.387Z,90.91
2016-05-31T07:38:57.562Z,90.81
2016-05-31T07:39:57.548Z,90.03
2016-05-31T07:40:57.536Z,89.36
2016-05-31T07:41:57.523Z,89.45
2016-05-31T07:42:57.525Z,89.94
2016-05-31T07:43:57.512Z,89.94
2016-05-31T07:44:57.499Z,90.47
2016-05-31T07:45:57.503Z,90.56
2016-05-31T07:46:57.490Z,90.22
2016-05-31T07:47:57.476Z,90.03
2016-05-31T07:48:57.463Z,88.87
2016-05-31T07:49:57.466Z,88.34
2016-05-31T07:50:57.469Z,88.34
2016-05-31T07:51:57.456Z,87.95
2016-05-31T07:52:57.536Z,87.95
2016-05-31T07:53:57.430Z,87.66
2016-05-31T07:54:57.416Z,87.71
2016-05-31T07:55:57.420Z,88.2
2016-05-31T07:56:57.407Z,88.2
2016-05-31T07:57:57.488Z,88.29
2016-05-31T07:58:57.380Z,88.2
2016-05-31T07:59:57.368Z,88.49
2016-05-31T08:00:57.371Z,88.29
2016-05-31T08:01:57.358Z,89.26
2016-05-31T08:02:57.345Z,88.68
2016-05-31T08:03:57.331Z,88.97
2016-05-31T08:04:57.335Z,88.87
2016-05-31T08:05:57.322Z,88.97
2016-05-31T08:06:57.309Z,88.97
2016-05-31T08:07:57.717Z,89.36
2016-05-31T08:08:57.282Z,88.29
2016-05-31T08:09:57.269Z,89.07
2016-05-31T08:10:57.273Z,88.97
2016-05-31T08:11:57.260Z,89.17
2016-05-31T08:12:57.247Z,89.55
2016-05-31T08:13:57.233Z,88.68
2016-05-31T08:14:57.221Z,88.78
2016-05-31T08:15:57.208Z,89.51
2016-05-31T08:16:57.211Z,89.41
2016-05-31T08:17:57.197Z,88.83
2016-05-31T08:18:57.184Z,88.83
2016-05-31T08:19:57.171Z,89.51
2016-05-31T08:20:57.158Z,89.31
2016-05-31T08:21:57.146Z,89.7
2016-05-31T08:22:57.133Z,89.51
2016-05-31T08:23:57.401Z,89.41
2016-05-31T08:24:57.122Z,90.28
2016-05-31T08:25:57.110Z,89.99
2016-05-31T08:26:57.097Z,90.77
2016-05-31T08:27:57.083Z,90.19
2016-05-31T08:28:57.071Z,90.47
2016-05-31T08:29:57.057Z,90.91
2016-05-31T08:30:57.046Z,90.91
2016-05-31T08:31:57.032Z,90.52
2016-05-31T08:32:57.035Z,90.23
2016-05-31T08:33:57.021Z,90.52
2016-05-31T08:34:57.009Z,90.42
2016-05-31T08:35:56.996Z,90.42
2016-05-31T08:36:56.982Z,90.03
2016-05-31T08:37:56.971Z,90.03
2016-05-31T08:38:56.957Z,89.65
2016-05-31T08:39:56.960Z,89.55
2016-05-31T08:40:56.947Z,89.65
2016-05-31T08:41:56.934Z,89.94
2016-05-31T08:42:56.921Z,89.75
2016-05-31T08:43:56.908Z,90.08
2016-05-31T08:44:56.895Z,89.59
2016-05-31T08:45:56.882Z,89.59
2016-05-31T08:46:56.869Z,89.59
2016-05-31T08:47:56.872Z,90.47
2016-05-31T08:48:56.859Z,91.91
2016-05-31T08:49:56.847Z,91.48
2016-05-31T08:50:56.833Z,92.49
2016-05-31T08:51:56.836Z,91.72
2016-05-31T08:52:57.791Z,92.68
2016-05-31T08:53:56.810Z,91.76
2016-05-31T08:54:56.813Z,92.05
2016-05-31T08:55:56.800Z,91.42
2016-05-31T08:56:56.802Z,90.84
2016-05-31T08:57:56.789Z,90.64
2016-05-31T08:58:56.777Z,90.69
2016-05-31T08:59:56.779Z,90.69
2016-05-31T09:00:56.766Z,88.65
2016-05-31T09:01:56.769Z,88.21
2016-05-31T09:02:56.756Z,86.86
2016-05-31T09:03:56.759Z,86.61
2016-05-31T09:04:56.746Z,85.25
2016-05-31T09:05:56.748Z,85.02
2016-05-31T09:06:56.735Z,84.63
2016-05-31T09:07:56.785Z,83.65
2016-05-31T09:08:56.726Z,83.56
2016-05-31T09:09:56.728Z,83.13
2016-05-31T09:10:56.715Z,83.13
2016-05-31T09:11:56.701Z,83.23
2016-05-31T09:12:56.704Z,83.13
2016-05-31T09:13:56.692Z,83.62
2016-05-31T09:14:56.695Z,83.13
2016-05-31T09:15:56.681Z,83.52
2016-05-31T09:16:56.669Z,84
2016-05-31T09:17:56.671Z,84.78
2016-05-31T09:18:56.659Z,85.03
2016-05-31T09:19:56.645Z,84.64
2016-05-31T09:20:56.633Z,85.51
2016-05-31T09:21:56.635Z,85.13
2016-05-31T09:22:56.717Z,84.83
2016-05-31T09:23:56.624Z,86.38
2016-05-31T09:24:56.612Z,87.74
2016-05-31T09:25:56.599Z,88.71
2016-05-31T09:26:56.602Z,89.97
2016-05-31T09:27:56.604Z,87.78
2016-05-31T09:28:56.577Z,86.82
2016-05-31T09:29:56.579Z,86.04
2016-05-31T09:30:56.566Z,86.04
2016-05-31T09:31:56.552Z,85.55
2016-05-31T09:32:56.556Z,85.07
2016-05-31T09:33:56.542Z,85.27
2016-05-31T09:34:56.546Z,85.55
2016-05-31T09:35:56.532Z,84.68
2016-05-31T09:36:56.800Z,85.94
2016-05-31T09:37:56.741Z,85.27
2016-05-31T09:38:56.510Z,85.36
2016-05-31T09:39:56.512Z,85.85
2016-05-31T09:40:56.499Z,86.72
2016-05-31T09:41:56.486Z,86.72
2016-05-31T09:42:56.489Z,86.86
2016-05-31T09:43:56.475Z,85.6
2016-05-31T09:44:56.462Z,85.69
2016-05-31T09:45:56.465Z,85.5
2016-05-31T09:46:56.453Z,85.36
2016-05-31T09:47:56.455Z,85.5
2016-05-31T09:48:56.442Z,85.46
2016-05-31T09:49:56.445Z,85.5
2016-05-31T09:50:56.432Z,85.4
2016-05-31T09:51:56.419Z,85.69
2016-05-31T09:52:56.641Z,84.92
2016-05-31T09:53:56.393Z,85.07
2016-05-31T09:54:56.396Z,84.88
2016-05-31T09:55:56.383Z,84.78
2016-05-31T09:56:56.370Z,84.83
2016-05-31T09:57:56.372Z,84.74
2016-05-31T09:58:56.360Z,86.09
2016-05-31T09:59:56.346Z,85.51
2016-05-31T10:00:56.334Z,86.19
2016-05-31T10:01:56.336Z,86.58
2016-05-31T10:02:56.371Z,86.38
2016-05-31T10:03:56.310Z,86.19
2016-05-31T10:04:56.329Z,86.29
2016-05-31T10:05:56.315Z,86.38
2016-05-31T10:06:56.288Z,86.96
2016-05-31T10:07:56.446Z,86.29
2016-05-31T10:08:56.262Z,86.87
2016-05-31T10:09:56.264Z,87.06
2016-05-31T10:10:56.268Z,87.45
2016-05-31T10:11:56.238Z,87.79
2016-05-31T10:12:56.226Z,87.84
2016-05-31T10:13:56.212Z,87.64
2016-05-31T10:14:56.215Z,87.6
2016-05-31T10:15:56.202Z,88.03
2016-05-31T10:16:56.190Z,88.51
2016-05-31T10:17:56.192Z,88.61
2016-05-31T10:18:56.179Z,88.17
2016-05-31T10:19:56.166Z,88.65
2016-05-31T10:20:56.154Z,88.46
2016-05-31T10:21:56.156Z,88.46
2016-05-31T10:22:56.642Z,88.79
2016-05-31T10:23:56.131Z,88.6
2016-05-31T10:24:56.133Z,89.96
2016-05-31T10:25:56.119Z,90.48
2016-05-31T10:26:56.107Z,90.2
2016-05-31T10:27:56.110Z,89.07
2016-05-31T10:28:56.097Z,88.24
2016-05-31T10:29:56.083Z,87.27
2016-05-31T10:30:56.086Z,86.79
2016-05-31T10:31:56.074Z,86.69
2016-05-31T10:32:56.076Z,86.11
2016-05-31T10:33:56.063Z,86.01
2016-05-31T10:34:56.066Z,84.85
2016-05-31T10:35:56.052Z,85.72
2016-05-31T10:36:56.040Z,85.72
2016-05-31T10:37:56.058Z,85.14
2016-05-31T10:38:56.030Z,85.14
2016-05-31T10:39:56.017Z,85.14
2016-05-31T10:40:56.020Z,84.85
2016-05-31T10:41:56.007Z,84.07
2016-05-31T10:42:56.009Z,84.27
2016-05-31T10:43:55.996Z,84.71
2016-05-31T10:44:55.984Z,84.81
2016-05-31T10:45:55.986Z,84.91
2016-05-31T10:46:55.989Z,85.1
2016-05-31T10:47:55.960Z,84.81
2016-05-31T10:48:55.947Z,84.81
2016-05-31T10:49:55.951Z,84.77
2016-05-31T10:50:55.937Z,85.19
2016-05-31T10:51:55.925Z,84.57
2016-05-31T10:52:55.927Z,84.86
2016-05-31T10:53:55.913Z,84.38
2016-05-31T10:54:55.901Z,84.53
2016-05-31T10:55:55.888Z,85.11
2016-05-31T10:56:55.875Z,84.72
2016-05-31T10:57:55.878Z,85.11
2016-05-31T10:58:55.864Z,85.3
2016-05-31T10:59:55.867Z,85.6
2016-05-31T11:00:55.839Z,85.6
2016-05-31T11:01:55.841Z,85.99
2016-05-31T11:02:55.829Z,86.57
2016-05-31T11:03:55.816Z,87.44
2016-05-31T11:04:55.818Z,87.44
2016-05-31T11:05:55.805Z,87.63
2016-05-31T11:06:55.793Z,87.92
2016-05-31T11:07:55.779Z,90.39
2016-05-31T11:08:55.783Z,90.2
2016-05-31T11:09:55.769Z,89.76
2016-05-31T11:10:55.771Z,89.17
2016-05-31T11:11:55.759Z,87.76
2016-05-31T11:12:55.746Z,86.6
2016-05-31T11:13:55.748Z,86.11
2016-05-31T11:14:55.752Z,85.82
2016-05-31T11:15:55.739Z,84.85
2016-05-31T11:16:55.726Z,85.53
2016-05-31T11:17:55.729Z,85.63
2016-05-31T11:18:55.715Z,85.04
2016-05-31T11:19:55.718Z,84.27
2016-05-31T11:20:55.705Z,84.17
2016-05-31T11:21:55.708Z,84.17
2016-05-31T11:22:55.695Z,84.27
2016-05-31T11:23:55.682Z,85.04
2016-05-31T11:24:55.669Z,84.27
2016-05-31T11:25:55.672Z,84.07
2016-05-31T11:26:55.659Z,84.94
2016-05-31T11:27:55.661Z,85.04
2016-05-31T11:28:55.649Z,84.85
2016-05-31T11:29:55.652Z,84.85
2016-05-31T11:30:55.638Z,85.24
2016-05-31T11:31:55.625Z,84.85
2016-05-31T11:32:55.627Z,84.94
2016-05-31T11:33:55.616Z,85.72
2016-05-31T11:34:55.602Z,85.57
2016-05-31T11:35:55.605Z,85.08
2016-05-31T11:36:55.591Z,85.18
2016-05-31T11:37:55.579Z,84.99
2016-05-31T11:38:55.987Z,85.67
2016-05-31T11:39:55.568Z,85.77
2016-05-31T11:40:55.557Z,85.18
2016-05-31T11:41:55.559Z,84.89
2016-05-31T11:42:55.545Z,84.79
2016-05-31T11:43:55.549Z,84.7
2016-05-31T11:44:55.535Z,84.7
2016-05-31T11:45:55.523Z,85.28
2016-05-31T11:46:55.510Z,84.89
2016-05-31T11:47:55.512Z,85.18
2016-05-31T11:48:55.498Z,85.28
2016-05-31T11:49:55.486Z,84.99
2016-05-31T11:50:55.489Z,84.89
2016-05-31T11:51:55.476Z,85.08
2016-05-31T11:52:56.073Z,84.79
2016-05-31T11:53:56.247Z,85.28
2016-05-31T11:54:55.453Z,84.85
2016-05-31T11:55:55.439Z,85.04
2016-05-31T11:56:55.442Z,85.24
2016-05-31T11:57:55.430Z,85.14
2016-05-31T11:58:55.417Z,84.75
2016-05-31T11:59:55.403Z,85.43
2016-05-31T12:00:55.406Z,85.43
2016-05-31T12:01:55.393Z,85.53
2016-05-31T12:02:55.380Z,85.04
2016-05-31T12:03:55.369Z,84.85
2016-05-31T12:04:55.371Z,85.68
2016-05-31T12:05:55.358Z,85.58
2016-05-31T12:06:55.344Z,85
2016-05-31T12:07:55.331Z,84.77
2016-05-31T12:08:55.678Z,85.68
2016-05-31T12:09:55.322Z,87.48
2016-05-31T12:10:55.308Z,91.99
2016-05-31T12:11:55.296Z,91.74
2016-05-31T12:12:55.298Z,90.97
2016-05-31T12:13:55.285Z,89.12
2016-05-31T12:14:55.273Z,88.78
2016-05-31T12:15:55.321Z,87.9
2016-05-31T12:16:55.262Z,87.51
2016-05-31T12:17:55.249Z,87.95
2016-05-31T12:18:55.251Z,86.98
2016-05-31T12:19:55.239Z,86.68
2016-05-31T12:20:55.242Z,86.68
2016-05-31T12:21:55.229Z,85.94
2016-05-31T12:22:55.951Z,85.71
2016-05-31T12:23:55.218Z,85.27
2016-05-31T12:24:55.220Z,85.27
2016-05-31T12:25:55.208Z,84.97
2016-05-31T12:26:55.195Z,85.07
2016-05-31T12:27:55.198Z,84.23
2016-05-31T12:28:55.185Z,84.33
2016-05-31T12:29:55.188Z,83.75
2016-05-31T12:30:55.191Z,82.87
2016-05-31T12:31:55.177Z,82.87
2016-05-31T12:32:55.164Z,82.78
2016-05-31T12:33:55.166Z,82.87
2016-05-31T12:34:55.169Z,83.17
2016-05-31T12:35:55.157Z,83.36
2016-05-31T12:36:55.144Z,82.97
2016-05-31T12:37:55.147Z,83.65
2016-05-31T12:38:55.133Z,84.33
2016-05-31T12:39:55.136Z,86.87
2016-05-31T12:40:55.123Z,88.8
2016-05-31T12:41:55.126Z,88.51
2016-05-31T12:42:55.113Z,86.31
2016-05-31T12:43:55.116Z,86.55
2016-05-31T12:44:55.118Z,85.77
2016-05-31T12:45:55.106Z,84.3
2016-05-31T12:46:55.108Z,85.08
2016-05-31T12:47:55.111Z,85.22
2016-05-31T12:48:55.115Z,85.85
2016-05-31T12:49:55.101Z,86.34
2016-05-31T12:50:55.104Z,86.24
2016-05-31T12:51:55.106Z,86.63
2016-05-31T12:52:55.093Z,86.29
2016-05-31T12:53:55.095Z,86.72